createdAt,value
2017-08-04T00:00:08.914Z,25.11
2017-08-04T00:00:49.376Z,25.06
2017-08-04T00:01:29.831Z,25.14
2017-08-04T00:02:10.282Z,25.16
2017-08-04T00:02:50.751Z,25.11
2017-08-04T00:03:31.211Z,25.18
2017-08-04T00:04:11.667Z,25.09
2017-08-04T00:04:52.122Z,25.09
2017-08-04T00:05:32.574Z,25.16
2017-08-04T00:06:13.041Z,25.12
2017-08-04T00:06:53.490Z,25.07
2017-08-04T00:07:33.946Z,25.09
2017-08-04T00:08:14.399Z,25.09
2017-08-04T00:08:54.853Z,25.03
2017-08-04T00:09:35.326Z,25.07
2017-08-04T00:10:15.779Z,25.11
2017-08-04T00:10:56.232Z,25.01
2017-08-04T00:11:36.683Z,25.01
2017-08-04T00:12:17.149Z,25.04
2017-08-04T00:12:57.608Z,25.07
2017-08-04T00:13:38.066Z,25.03
2017-08-04T00:14:18.522Z,25.07
2017-08-04T00:14:58.987Z,25.11
2017-08-04T00:15:39.431Z,25.01
2017-08-04T00:16:19.898Z,25.12
2017-08-04T00:17:00.346Z,25.06
2017-08-04T00:17:40.806Z,25.09
2017-08-04T00:18:21.257Z,25.03
2017-08-04T00:19:01.710Z,25.12
2017-08-04T00:19:42.158Z,25.07
2017-08-04T00:20:22.618Z,25.09
2017-08-04T00:21:03.079Z,25.07
2017-08-04T00:21:43.533Z,25.03
2017-08-04T00:22:23.992Z,25.01
2017-08-04T00:23:04.446Z,25.04
2017-08-04T00:23:44.895Z,24.93
2017-08-04T00:24:25.359Z,25
2017-08-04T00:25:05.812Z,25.09
2017-08-04T00:25:46.266Z,25
2017-08-04T00:26:26.728Z,24.96
2017-08-04T00:27:07.177Z,24.97
2017-08-04T00:27:47.635Z,24.99
2017-08-04T00:28:28.085Z,24.89
2017-08-04T00:29:08.537Z,24.85
2017-08-04T00:29:48.990Z,24.81
2017-08-04T00:30:29.446Z,24.81
2017-08-04T00:31:09.903Z,24.88
2017-08-04T00:31:50.358Z,24.84
2017-08-04T00:32:30.817Z,24.82
2017-08-04T00:33:11.266Z,24.96
2017-08-04T00:33:51.748Z,24.88
2017-08-04T00:34:32.203Z,24.82
2017-08-04T00:35:12.662Z,24.88
2017-08-04T00:35:53.116Z,24.94
2017-08-04T00:36:33.571Z,24.85
2017-08-04T00:37:14.019Z,24.84
2017-08-04T00:37:54.474Z,24.96
2017-08-04T00:38:34.933Z,24.99
2017-08-04T00:39:15.389Z,24.94
2017-08-04T00:39:55.853Z,24.96
2017-08-04T00:40:36.312Z,24.93
2017-08-04T00:41:16.761Z,24.94
2017-08-04T00:41:57.219Z,25.01
2017-08-04T00:42:37.678Z,25.01
2017-08-04T00:43:18.123Z,25
2017-08-04T00:43:58.590Z,24.97
2017-08-04T00:44:39.037Z,25.09
2017-08-04T00:45:19.495Z,25.03
2017-08-04T00:45:59.962Z,25.04
2017-08-04T00:46:40.423Z,25.01
2017-08-04T00:47:20.877Z,25.11
2017-08-04T00:48:01.327Z,25.12
2017-08-04T00:48:41.785Z,25.04
2017-08-04T00:49:22.244Z,25.04
2017-08-04T00:50:02.703Z,25.07
2017-08-04T00:50:43.150Z,25.03
2017-08-04T00:51:23.605Z,25.04
2017-08-04T00:52:04.068Z,25.09
2017-08-04T00:52:44.523Z,25.03
2017-08-04T00:53:24.985Z,25.04
2017-08-04T00:54:05.444Z,25.04
2017-08-04T00:54:45.901Z,25.06
2017-08-04T00:55:26.356Z,25.11
2017-08-04T00:56:06.813Z,25.11
2017-08-04T00:56:47.271Z,25.09
2017-08-04T00:57:27.726Z,24.99
2017-08-04T00:58:08.186Z,24.99
2017-08-04T00:58:48.640Z,25
2017-08-04T00:59:29.104Z,25.04
2017-08-04T01:00:09.564Z,25.04
2017-08-04T01:00:50.008Z,25.09
2017-08-04T01:01:30.463Z,25.09
2017-08-04T01:02:10.921Z,25.01
2017-08-04T01:02:51.374Z,25.01
2017-08-04T01:03:31.827Z,25.12
2017-08-04T01:04:12.289Z,25.01
2017-08-04T01:04:52.748Z,25.07
2017-08-04T01:05:33.227Z,25.04
2017-08-04T01:06:13.671Z,24.99
2017-08-04T01:06:54.126Z,25
2017-08-04T01:07:34.587Z,24.96
2017-08-04T01:08:15.047Z,25.06
2017-08-04T01:08:55.491Z,24.99
2017-08-04T01:09:35.943Z,25.03
2017-08-04T01:10:16.393Z,24.94
2017-08-04T01:10:56.852Z,24.96
2017-08-04T01:11:37.310Z,25.01
2017-08-04T01:12:17.802Z,24.94
2017-08-04T01:12:58.219Z,24.86
2017-08-04T01:13:38.679Z,24.94
2017-08-04T01:14:19.137Z,24.92
2017-08-04T01:14:59.583Z,24.93
2017-08-04T01:15:40.041Z,24.86
2017-08-04T01:16:20.500Z,24.92
2017-08-04T01:17:00.965Z,24.85
2017-08-04T01:17:41.443Z,24.93
2017-08-04T01:18:21.861Z,24.85
2017-08-04T01:19:02.319Z,24.93
2017-08-04T01:19:42.773Z,24.99
2017-08-04T01:20:23.238Z,24.81
2017-08-04T01:21:03.696Z,24.86
2017-08-04T01:21:44.165Z,24.82
2017-08-04T01:22:24.615Z,24.88
2017-08-04T01:23:05.087Z,24.85
2017-08-04T01:23:45.530Z,24.86
2017-08-04T01:24:25.984Z,24.85
2017-08-04T01:25:06.447Z,24.82
2017-08-04T01:25:46.900Z,24.88
2017-08-04T01:26:27.371Z,24.82
2017-08-04T01:27:07.810Z,24.82
2017-08-04T01:27:48.262Z,24.81
2017-08-04T01:28:28.712Z,24.84
2017-08-04T01:29:09.170Z,24.75
2017-08-04T01:29:49.627Z,24.75
2017-08-04T01:30:30.106Z,24.82
2017-08-04T01:31:10.562Z,24.84
2017-08-04T01:31:51.016Z,24.84
2017-08-04T01:32:31.468Z,24.85
2017-08-04T01:33:11.918Z,24.82
2017-08-04T01:33:52.376Z,24.86
2017-08-04T01:34:32.829Z,24.81
2017-08-04T01:35:13.286Z,24.79
2017-08-04T01:35:53.736Z,24.74
2017-08-04T01:36:34.194Z,24.81
2017-08-04T01:37:14.663Z,24.81
2017-08-04T01:37:55.098Z,24.71
2017-08-04T01:38:35.555Z,24.81
2017-08-04T01:39:16.012Z,24.79
2017-08-04T01:39:56.531Z,24.85
2017-08-04T01:40:36.991Z,24.79
2017-08-04T01:41:17.446Z,24.82
2017-08-04T01:41:57.907Z,24.79
2017-08-04T01:42:38.369Z,24.75
2017-08-04T01:43:18.831Z,24.78
2017-08-04T01:43:59.285Z,24.81
2017-08-04T01:44:39.740Z,24.74
2017-08-04T01:45:20.203Z,24.69
2017-08-04T01:46:00.656Z,24.66
2017-08-04T01:46:41.114Z,24.66
2017-08-04T01:47:21.575Z,24.66
2017-08-04T01:48:02.032Z,24.65
2017-08-04T01:48:42.489Z,24.63
2017-08-04T01:49:22.945Z,24.63
2017-08-04T01:50:03.401Z,24.69
2017-08-04T01:50:43.852Z,24.62
2017-08-04T01:51:26.124Z,24.62
2017-08-04T01:52:06.588Z,24.63
2017-08-04T01:52:47.051Z,24.61
2017-08-04T01:53:27.501Z,24.65
2017-08-04T01:54:07.943Z,24.63
2017-08-04T01:54:48.398Z,24.58
2017-08-04T01:55:28.850Z,24.53
2017-08-04T01:56:09.297Z,24.59
2017-08-04T01:56:49.758Z,24.61
2017-08-04T01:57:30.217Z,24.58
2017-08-04T01:58:10.674Z,24.56
2017-08-04T01:58:51.119Z,24.56
2017-08-04T01:59:31.581Z,24.58
2017-08-04T02:00:12.038Z,24.59
2017-08-04T02:00:52.491Z,24.58
2017-08-04T02:01:32.949Z,24.59
2017-08-04T02:02:13.411Z,24.62
2017-08-04T02:02:53.868Z,24.51
2017-08-04T02:03:34.329Z,24.56
2017-08-04T02:04:14.783Z,24.55
2017-08-04T02:04:55.240Z,24.58
2017-08-04T02:05:35.706Z,24.5
2017-08-04T02:06:16.155Z,24.48
2017-08-04T02:06:56.633Z,24.47
2017-08-04T02:07:37.088Z,24.65
2017-08-04T02:08:17.532Z,24.48
2017-08-04T02:08:57.976Z,24.62
2017-08-04T02:09:38.441Z,24.5
2017-08-04T02:10:18.894Z,24.58
2017-08-04T02:10:59.356Z,24.56
2017-08-04T02:11:39.815Z,24.46
2017-08-04T02:12:20.275Z,24.48
2017-08-04T02:13:00.741Z,24.47
2017-08-04T02:13:41.189Z,24.59
2017-08-04T02:14:21.651Z,24.55
2017-08-04T02:15:02.106Z,24.46
2017-08-04T02:15:42.562Z,24.5
2017-08-04T02:16:23.023Z,24.53
2017-08-04T02:17:03.489Z,24.48
2017-08-04T02:17:43.943Z,24.47
2017-08-04T02:18:24.399Z,24.48
2017-08-04T02:19:04.857Z,24.53
2017-08-04T02:19:45.318Z,24.48
2017-08-04T02:20:25.771Z,24.46
2017-08-04T02:21:06.226Z,24.46
2017-08-04T02:21:46.688Z,24.43
2017-08-04T02:22:27.135Z,24.46
2017-08-04T02:23:07.592Z,24.44
2017-08-04T02:23:48.043Z,24.44
2017-08-04T02:24:28.502Z,24.44
2017-08-04T02:25:08.959Z,24.53
2017-08-04T02:25:49.418Z,24.41
2017-08-04T02:26:29.875Z,24.41
2017-08-04T02:27:10.333Z,24.48
2017-08-04T02:27:50.785Z,24.44
2017-08-04T02:28:31.269Z,24.47
2017-08-04T02:29:11.710Z,24.46
2017-08-04T02:29:52.175Z,24.44
2017-08-04T02:30:32.631Z,24.51
2017-08-04T02:31:13.078Z,24.51
2017-08-04T02:31:53.528Z,24.55
2017-08-04T02:32:33.987Z,24.56
2017-08-04T02:33:14.448Z,24.46
2017-08-04T02:33:54.896Z,24.58
2017-08-04T02:34:35.357Z,24.61
2017-08-04T02:35:15.815Z,24.55
2017-08-04T02:35:56.278Z,24.53
2017-08-04T02:36:36.731Z,24.53
2017-08-04T02:37:17.189Z,24.66
2017-08-04T02:37:57.650Z,24.56
2017-08-04T02:38:38.105Z,24.62
2017-08-04T02:39:18.558Z,24.63
2017-08-04T02:39:59.011Z,24.58
2017-08-04T02:40:39.468Z,24.61
2017-08-04T02:41:19.933Z,24.61
2017-08-04T02:42:00.391Z,24.61
2017-08-04T02:42:40.847Z,24.61
2017-08-04T02:43:21.307Z,24.55
2017-08-04T02:44:01.790Z,24.58
2017-08-04T02:44:42.252Z,24.56
2017-08-04T02:45:22.712Z,24.56
2017-08-04T02:46:03.169Z,24.56
2017-08-04T02:46:43.633Z,24.48
2017-08-04T02:47:24.089Z,24.55
2017-08-04T02:48:04.547Z,24.5
2017-08-04T02:48:45.014Z,24.48
2017-08-04T02:49:25.461Z,24.5
2017-08-04T02:50:05.911Z,24.56
2017-08-04T02:50:46.364Z,24.46
2017-08-04T02:51:26.810Z,24.43
2017-08-04T02:52:07.267Z,24.44
2017-08-04T02:52:47.707Z,24.44
2017-08-04T02:53:28.150Z,24.43
2017-08-04T02:55:05.591Z,24.34
2017-08-04T02:55:46.074Z,24.34
2017-08-04T02:56:26.541Z,24.32
2017-08-04T02:57:06.992Z,24.4
2017-08-04T02:57:47.446Z,24.37
2017-08-04T02:58:27.901Z,24.36
2017-08-04T02:59:08.354Z,24.37
2017-08-04T02:59:48.803Z,24.32
2017-08-04T03:00:29.263Z,24.31
2017-08-04T03:01:09.717Z,24.29
2017-08-04T03:01:50.164Z,24.32
2017-08-04T03:02:30.616Z,24.31
2017-08-04T03:03:11.062Z,24.36
2017-08-04T03:03:51.511Z,24.29
2017-08-04T03:04:31.949Z,24.24
2017-08-04T03:05:12.410Z,24.28
2017-08-04T03:05:52.854Z,24.28
2017-08-04T03:06:33.306Z,24.34
2017-08-04T03:07:13.763Z,24.26
2017-08-04T03:07:54.214Z,24.18
2017-08-04T03:08:34.674Z,24.24
2017-08-04T03:09:15.123Z,24.28
2017-08-04T03:09:55.575Z,24.26
2017-08-04T03:10:36.037Z,24.28
2017-08-04T03:11:16.497Z,24.28
2017-08-04T03:11:56.946Z,24.26
2017-08-04T03:12:37.395Z,24.25
2017-08-04T03:13:17.859Z,24.29
2017-08-04T03:13:58.315Z,24.26
2017-08-04T03:14:38.771Z,24.32
2017-08-04T03:15:19.222Z,24.22
2017-08-04T03:15:59.675Z,24.26
2017-08-04T03:16:40.134Z,24.32
2017-08-04T03:17:20.600Z,24.28
2017-08-04T03:18:01.054Z,24.29
2017-08-04T03:18:41.603Z,24.28
2017-08-04T03:19:22.026Z,24.36
2017-08-04T03:20:02.467Z,24.24
2017-08-04T03:20:42.934Z,24.28
2017-08-04T03:21:23.373Z,24.22
2017-08-04T03:22:03.833Z,24.28
2017-08-04T03:22:44.287Z,24.26
2017-08-04T03:23:24.748Z,24.25
2017-08-04T03:24:05.206Z,24.19
2017-08-04T03:24:45.660Z,24.29
2017-08-04T03:25:26.107Z,24.29
2017-08-04T03:26:06.566Z,24.26
2017-08-04T03:26:47.018Z,24.41
2017-08-04T03:27:27.480Z,24.37
2017-08-04T03:28:07.936Z,24.4
2017-08-04T03:28:48.390Z,24.31
2017-08-04T03:29:28.841Z,24.32
2017-08-04T03:30:09.293Z,24.38
2017-08-04T03:30:49.748Z,24.43
2017-08-04T03:31:30.205Z,24.36
2017-08-04T03:32:10.665Z,24.37
2017-08-04T03:32:51.125Z,24.44
2017-08-04T03:33:31.587Z,24.47
2017-08-04T03:34:12.033Z,24.34
2017-08-04T03:34:52.489Z,24.43
2017-08-04T03:35:32.945Z,24.41
2017-08-04T03:36:13.389Z,24.47
2017-08-04T03:36:53.842Z,24.41
2017-08-04T03:37:34.297Z,24.53
2017-08-04T03:38:14.751Z,24.43
2017-08-04T03:38:55.207Z,24.43
2017-08-04T03:39:35.650Z,24.44
2017-08-04T03:40:16.105Z,24.48
2017-08-04T03:40:56.569Z,24.47
2017-08-04T03:41:37.019Z,24.51
2017-08-04T03:42:17.473Z,24.43
2017-08-04T03:42:58.022Z,24.55
2017-08-04T03:43:38.427Z,24.51
2017-08-04T03:44:18.915Z,24.58
2017-08-04T03:44:59.373Z,24.59
2017-08-04T03:45:39.828Z,24.59
2017-08-04T03:46:20.289Z,24.51
2017-08-04T03:47:00.757Z,24.59
2017-08-04T03:47:41.213Z,24.58
2017-08-04T03:48:21.705Z,24.58
2017-08-04T03:49:02.159Z,24.62
2017-08-04T03:49:42.613Z,24.65
2017-08-04T03:50:23.071Z,24.63
2017-08-04T03:51:03.525Z,24.78
2017-08-04T03:51:43.994Z,24.78
2017-08-04T03:52:24.435Z,24.84
2017-08-04T03:53:04.892Z,24.88
2017-08-04T03:53:45.410Z,24.86
2017-08-04T03:54:25.874Z,24.84
2017-08-04T03:55:06.331Z,25
2017-08-04T03:55:46.787Z,24.96
2017-08-04T03:56:27.267Z,24.99
2017-08-04T03:57:07.731Z,25.04
2017-08-04T03:57:48.191Z,24.97
2017-08-04T03:58:28.641Z,25.01
2017-08-04T03:59:09.099Z,24.99
2017-08-04T03:59:49.562Z,25.04
2017-08-04T04:00:30.027Z,25.09
2017-08-04T04:01:10.485Z,25.11
2017-08-04T04:01:50.941Z,25.12
2017-08-04T04:02:31.397Z,25.12
2017-08-04T04:03:11.858Z,25.16
2017-08-04T04:03:52.308Z,25.12
2017-08-04T04:04:32.764Z,25.21
2017-08-04T04:05:13.218Z,25.21
2017-08-04T04:05:53.673Z,25.19
2017-08-04T04:06:34.135Z,25.21
2017-08-04T04:07:14.599Z,25.18
2017-08-04T04:07:55.046Z,25.22
2017-08-04T04:08:35.503Z,25.22
2017-08-04T04:09:15.960Z,25.3
2017-08-04T04:09:56.417Z,25.22
2017-08-04T04:10:36.865Z,25.31
2017-08-04T04:11:17.326Z,25.33
2017-08-04T04:11:57.781Z,25.33
2017-08-04T04:12:38.233Z,25.26
2017-08-04T04:13:18.686Z,25.29
2017-08-04T04:13:59.137Z,25.37
2017-08-04T04:14:39.596Z,25.25
2017-08-04T04:15:20.097Z,25.34
2017-08-04T04:16:00.557Z,25.22
2017-08-04T04:16:41.013Z,25.37
2017-08-04T04:17:21.468Z,25.4
2017-08-04T04:18:01.903Z,25.37
2017-08-04T04:18:42.357Z,25.41
2017-08-04T04:19:22.813Z,25.44
2017-08-04T04:20:03.268Z,25.39
2017-08-04T04:20:43.721Z,25.36
2017-08-04T04:21:24.165Z,25.36
2017-08-04T04:22:04.617Z,25.4
2017-08-04T04:22:45.066Z,25.37
2017-08-04T04:23:25.518Z,25.37
2017-08-04T04:24:05.973Z,25.49
2017-08-04T04:24:46.426Z,25.44
2017-08-04T04:25:26.891Z,25.44
2017-08-04T04:26:07.349Z,25.4
2017-08-04T04:26:47.805Z,25.46
2017-08-04T04:27:28.259Z,25.48
2017-08-04T04:28:08.717Z,25.48
2017-08-04T04:28:49.171Z,25.44
2017-08-04T04:29:29.624Z,25.46
2017-08-04T04:30:10.077Z,25.46
2017-08-04T04:30:50.530Z,25.43
2017-08-04T04:31:30.991Z,25.46
2017-08-04T04:32:11.446Z,25.39
2017-08-04T04:32:51.905Z,25.54
2017-08-04T04:33:32.365Z,25.54
2017-08-04T04:34:12.822Z,25.46
2017-08-04T04:34:53.281Z,25.48
2017-08-04T04:35:33.727Z,25.44
2017-08-04T04:36:14.181Z,25.48
2017-08-04T04:36:54.636Z,25.51
2017-08-04T04:37:35.091Z,25.49
2017-08-04T04:38:15.559Z,25.49
2017-08-04T04:38:56.013Z,25.51
2017-08-04T04:39:36.464Z,25.48
2017-08-04T04:40:16.922Z,25.52
2017-08-04T04:40:57.369Z,25.54
2017-08-04T04:41:37.826Z,25.52
2017-08-04T04:42:18.274Z,25.54
2017-08-04T04:42:58.734Z,25.54
2017-08-04T04:43:39.188Z,25.44
2017-08-04T04:44:19.645Z,25.52
2017-08-04T04:45:00.108Z,25.49
2017-08-04T04:45:40.571Z,25.49
2017-08-04T04:46:21.022Z,25.54
2017-08-04T04:47:01.486Z,25.54
2017-08-04T04:47:41.940Z,25.52
2017-08-04T04:48:22.384Z,25.48
2017-08-04T04:49:02.838Z,25.46
2017-08-04T04:49:43.291Z,25.49
2017-08-04T04:50:23.740Z,25.51
2017-08-04T04:51:04.198Z,25.52
2017-08-04T04:51:44.654Z,25.52
2017-08-04T04:52:25.095Z,25.46
2017-08-04T04:53:05.553Z,25.49
2017-08-04T04:53:45.994Z,25.51
2017-08-04T04:54:26.465Z,25.52
2017-08-04T04:55:06.923Z,25.52
2017-08-04T04:55:47.382Z,25.49
2017-08-04T04:56:27.836Z,25.54
2017-08-04T04:57:08.289Z,25.43
2017-08-04T04:57:48.745Z,25.54
2017-08-04T04:58:29.208Z,25.54
2017-08-04T04:59:09.670Z,25.54
2017-08-04T04:59:50.115Z,25.46
2017-08-04T05:00:30.592Z,25.48
2017-08-04T05:01:11.028Z,25.54
2017-08-04T05:01:51.484Z,25.39
2017-08-04T05:02:31.941Z,25.48
2017-08-04T05:03:12.402Z,25.54
2017-08-04T05:03:52.858Z,25.54
2017-08-04T05:04:33.335Z,25.41
2017-08-04T05:05:13.781Z,25.49
2017-08-04T05:05:54.246Z,25.52
2017-08-04T05:06:34.695Z,25.51
2017-08-04T05:07:15.150Z,25.46
2017-08-04T05:07:55.596Z,25.54
2017-08-04T05:08:36.045Z,25.56
2017-08-04T05:09:16.495Z,25.55
2017-08-04T05:09:56.954Z,25.56
2017-08-04T05:10:37.395Z,25.46
2017-08-04T05:11:17.843Z,25.61
2017-08-04T05:11:58.289Z,25.52
2017-08-04T05:12:38.734Z,25.54
2017-08-04T05:13:19.186Z,25.58
2017-08-04T05:13:59.630Z,25.51
2017-08-04T05:14:40.084Z,25.62
2017-08-04T05:15:20.542Z,25.59
2017-08-04T05:16:00.984Z,25.61
2017-08-04T05:16:41.439Z,25.59
2017-08-04T05:17:21.898Z,25.54
2017-08-04T05:18:02.366Z,25.66
2017-08-04T05:18:42.827Z,25.58
2017-08-04T05:19:23.283Z,25.58
2017-08-04T05:20:03.735Z,25.55
2017-08-04T05:20:44.196Z,25.59
2017-08-04T05:21:24.651Z,25.56
2017-08-04T05:22:05.114Z,25.56
2017-08-04T05:22:45.557Z,25.61
2017-08-04T05:23:26.016Z,25.48
2017-08-04T05:24:06.472Z,25.56
2017-08-04T05:24:46.926Z,25.59
2017-08-04T05:25:27.377Z,25.56
2017-08-04T05:26:07.824Z,25.56
2017-08-04T05:26:48.286Z,25.54
2017-08-04T05:27:28.722Z,25.58
2017-08-04T05:28:09.184Z,25.55
2017-08-04T05:28:49.635Z,25.59
2017-08-04T05:29:30.090Z,25.55
2017-08-04T05:30:10.547Z,25.62
2017-08-04T05:30:51.011Z,25.58
2017-08-04T05:31:31.465Z,25.62
2017-08-04T05:32:11.920Z,25.54
2017-08-04T05:32:52.378Z,25.56
2017-08-04T05:33:32.833Z,25.63
2017-08-04T05:34:13.285Z,25.66
2017-08-04T05:34:53.736Z,25.59
2017-08-04T05:35:34.186Z,25.61
2017-08-04T05:36:14.637Z,25.63
2017-08-04T05:36:55.082Z,25.63
2017-08-04T05:37:35.528Z,25.66
2017-08-04T05:38:15.967Z,25.59
2017-08-04T05:38:56.428Z,25.58
2017-08-04T05:39:36.872Z,25.61
2017-08-04T05:40:17.325Z,25.73
2017-08-04T05:40:57.785Z,25.7
2017-08-04T05:41:38.243Z,25.68
2017-08-04T05:42:18.711Z,25.66
2017-08-04T05:42:59.155Z,25.7
2017-08-04T05:43:39.611Z,25.68
2017-08-04T05:44:20.088Z,25.71
2017-08-04T05:45:00.535Z,25.7
2017-08-04T05:45:41.003Z,25.71
2017-08-04T05:46:21.454Z,25.68
2017-08-04T05:47:01.936Z,25.7
2017-08-04T05:47:42.397Z,25.71
2017-08-04T05:48:22.855Z,25.73
2017-08-04T05:49:03.313Z,25.73
2017-08-04T05:49:43.774Z,25.71
2017-08-04T05:50:24.244Z,25.74
2017-08-04T05:51:04.699Z,25.71
2017-08-04T05:51:45.151Z,25.77
2017-08-04T05:52:25.610Z,25.76
2017-08-04T05:53:06.071Z,25.71
2017-08-04T05:53:46.521Z,25.74
2017-08-04T05:54:26.978Z,25.74
2017-08-04T05:55:07.426Z,25.74
2017-08-04T05:55:47.888Z,25.76
2017-08-04T05:56:28.345Z,25.76
2017-08-04T05:57:08.796Z,25.74
2017-08-04T05:57:49.257Z,25.8
2017-08-04T05:58:29.714Z,25.81
2017-08-04T05:59:10.176Z,25.73
2017-08-04T05:59:50.621Z,25.8
2017-08-04T06:00:31.073Z,25.74
2017-08-04T06:01:11.521Z,25.73
2017-08-04T06:01:51.981Z,25.76
2017-08-04T06:02:32.426Z,25.78
2017-08-04T06:03:12.889Z,25.71
2017-08-04T06:03:53.359Z,25.74
2017-08-04T06:04:33.802Z,25.8
2017-08-04T06:05:14.260Z,25.78
2017-08-04T06:05:54.716Z,25.74
2017-08-04T06:06:35.164Z,25.77
2017-08-04T06:07:15.619Z,25.71
2017-08-04T06:07:56.076Z,25.83
2017-08-04T06:08:36.537Z,25.74
2017-08-04T06:09:17.004Z,25.73
2017-08-04T06:09:57.458Z,25.81
2017-08-04T06:10:37.910Z,25.78
2017-08-04T06:11:18.359Z,25.78
2017-08-04T06:11:58.819Z,25.77
2017-08-04T06:12:39.271Z,25.77
2017-08-04T06:13:19.727Z,25.77
2017-08-04T06:14:00.183Z,25.71
2017-08-04T06:14:40.645Z,25.81
2017-08-04T06:15:21.099Z,25.77
2017-08-04T06:16:01.549Z,25.78
2017-08-04T06:16:42.006Z,25.7
2017-08-04T06:17:22.468Z,25.78
2017-08-04T06:18:02.932Z,25.78
2017-08-04T06:18:43.382Z,25.85
2017-08-04T06:19:23.831Z,25.81
2017-08-04T06:20:04.287Z,25.76
2017-08-04T06:20:44.752Z,25.78
2017-08-04T06:21:25.204Z,25.85
2017-08-04T06:22:05.661Z,25.86
2017-08-04T06:22:46.117Z,25.8
2017-08-04T06:23:26.570Z,25.83
2017-08-04T06:24:07.020Z,25.83
2017-08-04T06:24:47.483Z,25.88
2017-08-04T06:25:27.940Z,25.85
2017-08-04T06:26:08.395Z,25.88
2017-08-04T06:26:48.854Z,25.91
2017-08-04T06:27:29.313Z,25.88
2017-08-04T06:28:09.777Z,25.88
2017-08-04T06:28:50.216Z,25.88
2017-08-04T06:29:30.674Z,25.95
2017-08-04T06:30:11.128Z,25.95
2017-08-04T06:30:51.581Z,25.96
2017-08-04T06:31:32.039Z,25.92
2017-08-04T06:32:12.496Z,25.85
2017-08-04T06:32:52.957Z,25.89
2017-08-04T06:33:33.424Z,25.96
2017-08-04T06:34:13.881Z,25.88
2017-08-04T06:34:54.338Z,25.98
2017-08-04T06:35:34.792Z,25.89
2017-08-04T06:36:15.249Z,25.91
2017-08-04T06:36:55.704Z,25.95
2017-08-04T06:37:36.164Z,25.95
2017-08-04T06:38:16.617Z,25.88
2017-08-04T06:38:57.075Z,25.93
2017-08-04T06:39:37.538Z,25.91
2017-08-04T06:40:18.002Z,25.98
2017-08-04T06:40:58.456Z,25.96
2017-08-04T06:41:38.915Z,25.95
2017-08-04T06:42:19.374Z,25.85
2017-08-04T06:42:59.835Z,26.03
2017-08-04T06:43:40.289Z,26.01
2017-08-04T06:44:20.748Z,26.01
2017-08-04T06:45:01.205Z,25.96
2017-08-04T06:45:41.664Z,26.01
2017-08-04T06:46:22.120Z,26.06
2017-08-04T06:47:02.572Z,25.92
2017-08-04T06:47:43.037Z,26.01
2017-08-04T06:48:23.495Z,26.06
2017-08-04T06:49:03.958Z,26.08
2017-08-04T06:49:44.423Z,26.04
2017-08-04T06:50:24.877Z,26.1
2017-08-04T06:51:05.328Z,25.98
2017-08-04T06:51:45.777Z,26.07
2017-08-04T06:52:26.217Z,26.13
2017-08-04T06:53:06.680Z,26.01
2017-08-04T06:53:47.137Z,26.03
2017-08-04T06:54:27.596Z,26.01
2017-08-04T06:55:08.046Z,25.99
2017-08-04T06:55:48.507Z,25.98
2017-08-04T06:56:28.969Z,25.99
2017-08-04T06:57:09.424Z,26.01
2017-08-04T06:57:49.875Z,26.15
2017-08-04T06:58:30.332Z,26.03
2017-08-04T06:59:10.791Z,26.03
2017-08-04T06:59:51.252Z,26.01
2017-08-04T07:00:31.713Z,26.03
2017-08-04T07:01:12.168Z,25.99
2017-08-04T07:01:52.613Z,25.98
2017-08-04T07:02:33.065Z,26.08
2017-08-04T07:03:13.520Z,25.98
2017-08-04T07:03:53.978Z,26.13
2017-08-04T07:04:34.450Z,26.07
2017-08-04T07:05:14.884Z,26.01
2017-08-04T07:05:55.339Z,26.13
2017-08-04T07:06:35.795Z,26.13
2017-08-04T07:07:16.248Z,26.15
2017-08-04T07:07:56.701Z,26.18
2017-08-04T07:08:37.160Z,26.15
2017-08-04T07:09:17.614Z,26.08
2017-08-04T07:09:58.075Z,26.24
2017-08-04T07:10:38.529Z,26.24
2017-08-04T07:11:18.983Z,26.13
2017-08-04T07:11:59.441Z,26.1
2017-08-04T07:12:39.899Z,26.15
2017-08-04T07:13:20.352Z,26.16
2017-08-04T07:14:00.806Z,26.16
2017-08-04T07:14:41.276Z,26.13
2017-08-04T07:15:21.704Z,26.11
2017-08-04T07:16:02.164Z,26.13
2017-08-04T07:16:42.624Z,26.16
2017-08-04T07:17:23.082Z,26.11
2017-08-04T07:18:03.541Z,26.13
2017-08-04T07:18:44.017Z,26.11
2017-08-04T07:19:24.464Z,26.13
2017-08-04T07:20:04.914Z,26.1
2017-08-04T07:20:45.374Z,26.11
2017-08-04T07:21:25.828Z,26.13
2017-08-04T07:22:06.291Z,26.15
2017-08-04T07:22:46.742Z,25.98
2017-08-04T07:23:27.193Z,26.11
2017-08-04T07:24:07.656Z,26.06
2017-08-04T07:24:48.116Z,25.99
2017-08-04T07:25:28.574Z,25.96
2017-08-04T07:26:09.027Z,26.03
2017-08-04T07:26:49.488Z,26.04
2017-08-04T07:27:29.952Z,26.08
2017-08-04T07:28:10.407Z,26.13
2017-08-04T07:28:50.859Z,26.13
2017-08-04T07:29:31.306Z,26.18
2017-08-04T07:30:11.759Z,26.15
2017-08-04T07:30:52.231Z,26.18
2017-08-04T07:31:32.690Z,26.15
2017-08-04T07:32:13.145Z,26.27
2017-08-04T07:32:53.598Z,26.3
2017-08-04T07:33:34.053Z,26.24
2017-08-04T07:34:14.514Z,26.24
2017-08-04T07:34:54.970Z,26.33
2017-08-04T07:35:35.429Z,26.23
2017-08-04T07:36:15.884Z,26.27
2017-08-04T07:36:56.343Z,26.3
2017-08-04T07:37:36.797Z,26.36
2017-08-04T07:38:17.273Z,26.33
2017-08-04T07:38:57.724Z,26.31
2017-08-04T07:39:38.181Z,26.37
2017-08-04T07:40:18.641Z,26.41
2017-08-04T07:40:59.096Z,26.42
2017-08-04T07:41:39.558Z,26.36
2017-08-04T07:42:20.008Z,26.45
2017-08-04T07:43:00.479Z,26.45
2017-08-04T07:43:40.937Z,26.37
2017-08-04T07:44:21.393Z,26.45
2017-08-04T07:45:01.847Z,26.44
2017-08-04T07:45:42.307Z,26.52
2017-08-04T07:46:22.761Z,26.51
2017-08-04T07:47:03.218Z,26.59
2017-08-04T07:47:43.677Z,26.59
2017-08-04T07:48:24.133Z,26.67
2017-08-04T07:49:04.594Z,26.66
2017-08-04T07:49:45.047Z,26.67
2017-08-04T07:50:25.503Z,26.61
2017-08-04T07:51:05.974Z,26.78
2017-08-04T07:51:46.435Z,26.68
2017-08-04T07:52:26.892Z,26.76
2017-08-04T07:53:07.351Z,26.78
2017-08-04T07:53:47.807Z,26.78
2017-08-04T07:54:28.263Z,26.67
2017-08-04T07:55:08.729Z,26.78
2017-08-04T07:55:49.183Z,26.71
2017-08-04T07:56:29.646Z,26.73
2017-08-04T07:57:10.110Z,26.81
2017-08-04T07:57:50.558Z,26.66
2017-08-04T07:58:31.012Z,26.68
2017-08-04T07:59:11.469Z,26.7
2017-08-04T07:59:51.921Z,26.66
2017-08-04T08:00:32.371Z,26.64
2017-08-04T08:01:12.829Z,26.64
2017-08-04T08:01:53.288Z,26.64
2017-08-04T08:02:33.753Z,26.63
2017-08-04T08:03:14.223Z,26.6
2017-08-04T08:03:54.667Z,26.63
2017-08-04T08:04:35.118Z,26.6
2017-08-04T08:05:15.577Z,26.66
2017-08-04T08:05:56.035Z,26.6
2017-08-04T08:06:36.490Z,26.68
2017-08-04T08:07:16.950Z,26.63
2017-08-04T08:07:57.407Z,26.63
2017-08-04T08:08:37.865Z,26.66
2017-08-04T08:09:18.470Z,26.63
2017-08-04T08:09:58.768Z,26.61
2017-08-04T08:10:39.220Z,26.6
2017-08-04T08:11:19.676Z,26.7
2017-08-04T08:12:00.132Z,26.66
2017-08-04T08:12:40.588Z,26.64
2017-08-04T08:13:21.046Z,26.64
2017-08-04T08:14:01.503Z,26.73
2017-08-04T08:14:42.001Z,26.68
2017-08-04T08:15:22.516Z,26.67
2017-08-04T08:16:02.964Z,26.66
2017-08-04T08:16:43.407Z,26.6
2017-08-04T08:17:23.858Z,26.7
2017-08-04T08:18:04.311Z,26.67
2017-08-04T08:18:44.767Z,26.64
2017-08-04T08:19:25.223Z,26.64
2017-08-04T08:20:05.680Z,26.61
2017-08-04T08:20:46.143Z,26.59
2017-08-04T08:21:26.598Z,26.68
2017-08-04T08:22:07.048Z,26.68
2017-08-04T08:22:47.526Z,26.64
2017-08-04T08:23:27.990Z,26.64
2017-08-04T08:24:08.705Z,26.66
2017-08-04T08:24:49.330Z,26.73
2017-08-04T08:25:29.789Z,26.64
2017-08-04T08:26:10.249Z,26.67
2017-08-04T08:26:50.700Z,26.64
2017-08-04T08:27:31.153Z,26.64
2017-08-04T08:28:11.608Z,26.68
2017-08-04T08:28:52.054Z,26.68
2017-08-04T08:29:32.521Z,26.64
2017-08-04T08:30:12.971Z,26.67
2017-08-04T08:30:53.433Z,26.66
2017-08-04T08:32:51.456Z,26.79
2017-08-04T08:33:31.920Z,26.73
2017-08-04T08:34:12.358Z,26.73
2017-08-04T08:34:52.815Z,26.82
2017-08-04T08:35:33.348Z,26.83
2017-08-04T08:36:13.751Z,26.81
2017-08-04T08:36:54.199Z,26.86
2017-08-04T08:37:34.663Z,26.73
2017-08-04T08:38:15.122Z,26.83
2017-08-04T08:38:55.585Z,26.79
2017-08-04T08:39:36.040Z,26.79
2017-08-04T08:40:16.490Z,26.89
2017-08-04T08:40:56.948Z,26.79
2017-08-04T08:41:37.419Z,26.86
2017-08-04T08:42:17.871Z,26.81
2017-08-04T08:42:58.319Z,26.82
2017-08-04T08:43:38.797Z,26.79
2017-08-04T08:44:19.257Z,26.85